createdAt,value
2018-02-09T00:02:04.565Z,67.60
2018-02-09T00:04:30.911Z,67.25
2018-02-09T00:06:57.169Z,69.75
2018-02-09T00:09:23.834Z,69.57
2018-02-09T00:11:50.109Z,66.00
2018-02-09T00:14:16.411Z,73.55
2018-02-09T00:16:42.787Z,76.28
2018-02-09T00:19:09.377Z,72.28
2018-02-09T00:21:35.621Z,75.87
2018-02-09T00:24:01.913Z,71.78
2018-02-09T00:26:28.163Z,68.18
2018-02-09T00:28:54.470Z,69.50
2018-02-09T00:31:20.800Z,69.40
2018-02-09T00:33:47.503Z,81.30
2018-02-09T00:36:13.743Z,71.57
2018-02-09T00:38:40.433Z,69.65
2018-02-09T00:41:06.669Z,70.15
2018-02-09T00:43:32.865Z,72.05
2018-02-09T00:45:59.226Z,76.47
2018-02-09T00:48:25.427Z,74.05
2018-02-09T00:50:51.651Z,67.40
2018-02-09T00:53:17.884Z,78.32
2018-02-09T00:55:44.209Z,69.45
2018-02-09T00:58:10.413Z,72.47
2018-02-09T01:00:36.681Z,73.05
2018-02-09T01:03:02.913Z,71.80
2018-02-09T01:05:29.113Z,76.43
2018-02-09T01:07:55.353Z,75.40
2018-02-09T01:10:21.606Z,76.50
2018-02-09T01:12:48.353Z,70.35
2018-02-09T01:15:14.678Z,64.80
2018-02-09T01:17:40.883Z,75.18
2018-02-09T01:20:07.097Z,70.05
2018-02-09T01:22:34.023Z,67.57
2018-02-09T01:25:00.350Z,70.50
2018-02-09T01:27:26.623Z,70.50
2018-02-09T01:29:52.891Z,79.25
2018-02-09T01:32:19.228Z,75.37
2018-02-09T01:34:45.849Z,78.50
2018-02-09T01:37:12.102Z,76.18
2018-02-09T01:39:38.417Z,86.55
2018-02-09T01:42:05.016Z,77.05
2018-02-09T01:44:31.287Z,77.93
2018-02-09T01:46:58.184Z,68.20
2018-02-09T01:49:24.414Z,75.22
2018-02-09T01:51:50.666Z,77.70
2018-02-09T01:54:16.971Z,71.25
2018-02-09T01:56:43.205Z,65.68
2018-02-09T01:59:09.426Z,80.65
2018-02-09T02:01:35.651Z,67.43
2018-02-09T02:04:01.943Z,72.95
2018-02-09T02:06:28.213Z,74.55
2018-02-09T02:08:54.426Z,80.57
2018-02-09T02:11:20.659Z,66.95
2018-02-09T02:13:47.667Z,71.05
2018-02-09T02:16:14.308Z,73.47
2018-02-09T02:18:40.546Z,70.57
2018-02-09T02:21:06.823Z,67.35
2018-02-09T02:23:33.071Z,69.55
2018-02-09T02:25:59.288Z,77.75
2018-02-09T02:28:25.500Z,65.43
2018-02-09T02:30:51.727Z,76.28
2018-02-09T02:33:18.774Z,74.55
2018-02-09T02:35:45.016Z,64.05
2018-02-09T02:38:11.333Z,68.43
2018-02-09T02:40:37.560Z,79.70
2018-02-09T02:43:03.868Z,76.50
2018-02-09T02:45:30.057Z,79.00
2018-02-09T02:47:56.673Z,74.00
2018-02-09T02:50:22.880Z,66.22
2018-02-09T02:52:49.207Z,73.90
2018-02-09T02:55:15.492Z,73.87
2018-02-09T02:57:42.093Z,65.55
2018-02-09T03:00:08.371Z,70.55
2018-02-09T03:02:34.613Z,65.40
2018-02-09T03:05:00.860Z,72.45
2018-02-09T03:07:27.073Z,68.80
2018-02-09T03:09:53.263Z,70.80
2018-02-09T03:12:19.933Z,63.28
2018-02-09T03:14:46.146Z,67.90
2018-02-09T03:17:12.405Z,70.43
2018-02-09T03:19:38.619Z,68.32
2018-02-09T03:22:04.819Z,64.15
2018-02-09T03:24:31.398Z,72.18
2018-02-09T03:26:57.627Z,66.28
2018-02-09T03:29:23.893Z,73.60
2018-02-09T03:31:50.575Z,63.75
2018-02-09T03:34:16.811Z,66.70
2018-02-09T03:36:43.103Z,61.25
2018-02-09T03:39:09.686Z,63.55
2018-02-09T03:41:35.998Z,75.40
2018-02-09T03:44:02.381Z,64.62
2018-02-09T03:46:28.660Z,60.53
2018-02-09T03:48:54.991Z,58.65
2018-02-09T03:51:21.413Z,67.62
2018-02-09T03:53:47.680Z,74.35
2018-02-09T03:56:13.914Z,70.22
2018-02-09T03:58:40.169Z,66.25
2018-02-09T04:01:06.433Z,74.30
2018-02-09T04:03:32.699Z,73.60
2018-02-09T04:05:59.046Z,72.62
2018-02-09T04:08:25.301Z,71.57
2018-02-09T04:10:51.547Z,68.35
2018-02-09T04:13:17.897Z,62.65
2018-02-09T04:15:44.211Z,63.70
2018-02-09T04:18:10.545Z,66.07
2018-02-09T04:20:36.766Z,59.97
2018-02-09T04:23:02.994Z,67.53
2018-02-09T04:25:29.362Z,64.82
2018-02-09T04:27:55.736Z,66.25
2018-02-09T04:30:22.128Z,62.55
2018-02-09T04:32:48.397Z,60.45
2018-02-09T04:35:14.694Z,60.40
2018-02-09T04:37:40.949Z,65.40
2018-02-09T04:40:07.209Z,58.40
2018-02-09T04:42:33.542Z,63.92
2018-02-09T04:44:59.764Z,65.30
2018-02-09T04:47:25.972Z,60.28
2018-02-09T04:49:52.567Z,65.70
2018-02-09T04:52:18.820Z,62.72
2018-02-09T04:54:45.048Z,65.07
2018-02-09T04:57:11.743Z,68.30
2018-02-09T04:59:38.021Z,61.20
2018-02-09T05:02:05.214Z,66.93
2018-02-09T05:04:31.545Z,60.63
2018-02-09T05:06:57.949Z,64.93
2018-02-09T05:09:24.172Z,64.40
2018-02-09T05:11:50.549Z,67.93
2018-02-09T05:14:16.802Z,61.05
2018-02-09T05:16:43.400Z,57.88
2018-02-09T05:19:09.724Z,60.08
2018-02-09T05:21:35.939Z,63.67
2018-02-09T05:24:02.200Z,60.92
2018-02-09T05:26:28.479Z,56.33
2018-02-09T05:28:55.166Z,63.95
2018-02-09T05:31:21.432Z,58.72
2018-02-09T05:33:48.051Z,61.65
2018-02-09T05:36:14.380Z,68.25
2018-02-09T05:38:40.799Z,65.87
2018-02-09T05:41:07.223Z,68.47
2018-02-09T05:43:33.424Z,69.62
2018-02-09T05:45:59.751Z,59.55
2018-02-09T05:48:25.996Z,63.15
2018-02-09T05:50:52.195Z,60.35
2018-02-09T05:53:18.564Z,62.85
2018-02-09T05:55:44.826Z,57.38
2018-02-09T05:58:11.021Z,59.50
2018-02-09T06:00:37.260Z,60.78
2018-02-09T06:03:03.674Z,63.97
2018-02-09T06:05:30.009Z,57.55
2018-02-09T06:07:56.219Z,60.10
2018-02-09T06:10:22.434Z,59.92
2018-02-09T06:12:48.749Z,61.15
2018-02-09T06:15:15.345Z,56.30
2018-02-09T06:17:41.564Z,58.50
2018-02-09T06:20:07.771Z,64.82
2018-02-09T06:22:33.991Z,49.17
2018-02-09T06:25:00.225Z,59.47
2018-02-09T06:27:26.447Z,57.92
2018-02-09T06:29:52.688Z,58.38
2018-02-09T06:32:18.929Z,63.53
2018-02-09T06:34:45.186Z,69.12
2018-02-09T06:37:11.489Z,53.10
2018-02-09T06:39:37.719Z,55.38
2018-02-09T06:42:03.925Z,62.33
2018-02-09T06:44:30.149Z,61.15
2018-02-09T06:46:56.407Z,63.30
2018-02-09T06:49:23.571Z,57.03
2018-02-09T06:51:49.877Z,64.35
2018-02-09T06:54:16.089Z,66.43
2018-02-09T06:56:42.285Z,59.53
2018-02-09T06:59:08.889Z,62.85
2018-02-09T07:01:35.076Z,67.10
2018-02-09T07:04:01.314Z,60.70
2018-02-09T07:06:27.563Z,55.83
2018-02-09T07:08:53.804Z,63.65
2018-02-09T07:11:20.073Z,56.35
2018-02-09T07:13:46.701Z,60.40
2018-02-09T07:16:13.322Z,53.10
2018-02-09T07:18:39.533Z,63.25
2018-02-09T07:21:05.801Z,61.55
2018-02-09T07:23:32.373Z,65.10
2018-02-09T07:25:58.609Z,58.92
2018-02-09T07:28:24.841Z,63.25
2018-02-09T07:30:51.050Z,53.40
2018-02-09T07:33:18.231Z,61.00
2018-02-09T07:35:44.456Z,59.90
2018-02-09T07:38:10.670Z,57.70
2018-02-09T07:40:37.039Z,62.60
2018-02-09T07:43:03.252Z,58.65
2018-02-09T07:45:29.468Z,67.90
2018-02-09T07:47:55.687Z,65.43
2018-02-09T07:50:21.894Z,59.63
2018-02-09T07:52:48.497Z,56.25
2018-02-09T07:55:14.794Z,65.20
2018-02-09T07:57:41.030Z,66.72
2018-02-09T08:00:07.695Z,66.90
2018-02-09T08:02:34.273Z,58.85
2018-02-09T08:05:00.487Z,63.25
2018-02-09T08:07:26.737Z,69.03
2018-02-09T08:09:52.929Z,64.93
2018-02-09T08:12:19.220Z,60.47
2018-02-09T08:14:45.521Z,62.50
2018-02-09T08:17:11.760Z,65.85
2018-02-09T08:19:37.969Z,67.10
2018-02-09T08:22:05.315Z,69.53
2018-02-09T08:24:31.553Z,61.45
2018-02-09T08:26:57.745Z,63.78
2018-02-09T08:29:24.332Z,62.22
2018-02-09T08:31:50.629Z,65.57
2018-02-09T08:34:16.909Z,59.00
2018-02-09T08:36:43.139Z,65.03
2018-02-09T08:39:09.395Z,60.22
2018-02-09T08:41:36.042Z,57.25
2018-02-09T08:44:02.470Z,63.75
2018-02-09T08:46:29.506Z,68.80
2018-02-09T08:48:56.112Z,61.15
2018-02-09T08:51:22.333Z,61.30
2018-02-09T08:53:48.764Z,59.63
2018-02-09T08:56:14.990Z,61.40
2018-02-09T08:58:42.038Z,63.15
2018-02-09T09:01:08.268Z,61.35
2018-02-09T09:03:34.531Z,73.85
2018-02-09T09:06:01.152Z,57.92
2018-02-09T09:08:27.531Z,59.15
2018-02-09T09:10:53.905Z,60.15
2018-02-09T09:13:20.198Z,66.12
2018-02-09T09:15:46.573Z,60.35
2018-02-09T09:18:12.955Z,61.42
2018-02-09T09:20:39.263Z,63.20
2018-02-09T09:23:05.921Z,60.53
2018-02-09T09:25:32.177Z,59.90
2018-02-09T09:27:58.424Z,61.33
2018-02-09T09:30:24.711Z,59.55
2018-02-09T09:32:51.141Z,62.92
2018-02-09T09:35:17.488Z,67.40
2018-02-09T09:37:43.754Z,58.42
2018-02-09T09:40:10.215Z,63.05
2018-02-09T09:42:37.018Z,61.70
2018-02-09T09:45:03.297Z,65.12
2018-02-09T09:47:29.574Z,58.42
2018-02-09T09:49:55.799Z,62.58
2018-02-09T09:52:22.041Z,59.67
2018-02-09T09:54:48.320Z,63.30
2018-02-09T09:57:14.537Z,59.03
2018-02-09T09:59:40.779Z,55.92
2018-02-09T10:02:07.039Z,50.03
2018-02-09T10:04:33.270Z,51.40
2018-02-09T10:06:59.506Z,54.17
2018-02-09T10:12:26.689Z,56.35
2018-02-09T10:14:52.915Z,62.83
2018-02-09T10:17:19.159Z,50.28
2018-02-09T10:19:45.406Z,54.70
2018-02-09T10:22:11.698Z,59.83
2018-02-09T10:24:38.619Z,52.58
2018-02-09T10:27:06.467Z,54.50
2018-02-09T10:29:32.711Z,54.70
2018-02-09T10:31:58.942Z,51.08
2018-02-09T10:34:25.254Z,45.53
2018-02-09T10:36:51.509Z,55.40
2018-02-09T10:39:17.848Z,54.22
2018-02-09T10:41:44.247Z,54.90
2018-02-09T10:44:10.489Z,56.30
2018-02-09T10:46:36.794Z,52.97
2018-02-09T10:49:03.026Z,50.78
2018-02-09T10:51:29.243Z,52.05
2018-02-09T10:53:55.458Z,57.80
2018-02-09T10:56:21.808Z,52.83
2018-02-09T10:58:48.054Z,52.67
2018-02-09T11:01:20.498Z,52.58
2018-02-09T11:03:46.720Z,56.67
2018-02-09T11:06:13.926Z,54.05
2018-02-09T11:08:40.208Z,51.08
2018-02-09T11:11:06.538Z,49.22
2018-02-09T11:13:36.767Z,50.33
2018-02-09T11:16:03.033Z,47.92
2018-02-09T11:18:29.932Z,54.95
2018-02-09T11:20:56.227Z,53.45
2018-02-09T11:23:22.538Z,54.83
2018-02-09T11:25:48.763Z,50.03
2018-02-09T11:28:14.978Z,51.78
2018-02-09T11:30:41.281Z,48.22
2018-02-09T11:33:07.521Z,46.97
2018-02-09T11:35:33.764Z,46.58
2018-02-09T11:38:00.037Z,46.47
2018-02-09T11:40:26.262Z,52.58
2018-02-09T11:42:52.508Z,44.92
2018-02-09T11:45:18.788Z,45.25
2018-02-09T11:47:45.038Z,48.35
2018-02-09T11:50:11.666Z,52.67
2018-02-09T11:52:37.897Z,47.35
2018-02-09T11:55:04.150Z,48.65
2018-02-09T11:57:30.722Z,51.65
2018-02-09T11:59:57.952Z,45.72
2018-02-09T12:02:24.939Z,47.85
2018-02-09T12:04:51.218Z,52.13
2018-02-09T12:07:17.791Z,48.08
2018-02-09T12:09:44.004Z,50.22
2018-02-09T12:12:10.246Z,45.30
2018-02-09T12:14:36.501Z,48.70
2018-02-09T12:17:02.750Z,49.20
2018-02-09T12:19:28.967Z,50.08
2018-02-09T12:21:55.451Z,52.45
2018-02-09T12:24:21.659Z,46.42
2018-02-09T12:26:47.894Z,41.72
2018-02-09T12:29:14.296Z,43.00
2018-02-09T12:31:40.702Z,41.45
2018-02-09T12:34:06.983Z,38.60
2018-02-09T12:36:33.252Z,41.78
2018-02-09T12:38:59.544Z,43.97
2018-02-09T12:41:25.824Z,42.95
2018-02-09T12:43:52.190Z,42.05
2018-02-09T12:46:18.811Z,43.03
2018-02-09T12:48:45.034Z,42.38
2018-02-09T12:51:11.412Z,41.78
2018-02-09T12:53:37.670Z,40.35
2018-02-09T12:56:03.883Z,45.17
2018-02-09T12:58:30.103Z,46.90
2018-02-09T13:00:56.320Z,42.22
2018-02-09T13:03:22.622Z,48.95
2018-02-09T13:05:49.254Z,49.65
2018-02-09T13:08:15.882Z,45.80
2018-02-09T13:10:42.132Z,45.38
2018-02-09T13:13:09.622Z,43.58
2018-02-09T13:15:35.821Z,44.30
2018-02-09T13:18:02.404Z,46.25
2018-02-09T13:20:28.667Z,47.92
2018-02-09T13:23:07.440Z,47.15
2018-02-09T13:25:33.733Z,40.17
2018-02-09T13:28:00.358Z,43.75
2018-02-09T13:30:26.641Z,45.15
2018-02-09T13:33:05.008Z,46.05
2018-02-09T13:35:31.615Z,46.22
2018-02-09T13:37:57.885Z,44.80
2018-02-09T13:40:24.501Z,44.47
2018-02-09T13:42:51.571Z,46.42
2018-02-09T13:45:18.158Z,42.45
2018-02-09T13:47:44.365Z,45.80
2018-02-09T13:50:10.600Z,44.53
2018-02-09T13:52:36.878Z,44.72
2018-02-09T13:55:03.515Z,46.00
2018-02-09T13:57:30.276Z,48.45
2018-02-09T13:59:56.478Z,52.88
2018-02-09T14:02:22.833Z,47.35
2018-02-09T14:04:49.061Z,48.40
2018-02-09T14:07:15.338Z,51.50
2018-02-09T14:09:41.616Z,51.50
2018-02-09T14:12:08.407Z,47.75
2018-02-09T14:14:34.677Z,51.70
2018-02-09T14:17:01.307Z,47.78
2018-02-09T14:19:27.551Z,49.53
2018-02-09T14:21:53.799Z,42.35
2018-02-09T14:24:20.058Z,46.95
2018-02-09T14:26:46.271Z,44.85
2018-02-09T14:29:12.515Z,51.92
2018-02-09T14:31:39.183Z,50.33
2018-02-09T14:34:06.518Z,53.33
2018-02-09T14:36:32.733Z,47.95
2018-02-09T14:38:58.963Z,51.25
2018-02-09T14:41:25.187Z,46.55
2018-02-09T14:43:51.731Z,49.13
2018-02-09T14:46:17.922Z,42.62
2018-02-09T14:48:44.142Z,45.17
2018-02-09T14:51:11.366Z,50.97
2018-02-09T14:53:37.965Z,56.47
2018-02-09T14:56:04.163Z,64.78
2018-02-09T14:58:30.430Z,53.97
2018-02-09T15:00:56.767Z,47.15
2018-02-09T15:03:23.680Z,47.20
2018-02-09T15:05:49.942Z,56.10
2018-02-09T15:08:16.141Z,54.00
2018-02-09T15:10:43.262Z,49.30
2018-02-09T15:13:11.089Z,48.85
2018-02-09T15:19:35.400Z,38.35
2018-02-09T15:22:01.677Z,44.42
2018-02-09T15:24:28.160Z,47.10
2018-02-09T15:26:54.413Z,48.22
2018-02-09T15:29:21.164Z,42.42
2018-02-09T15:31:47.389Z,50.40
2018-02-09T15:34:13.688Z,45.15
2018-02-09T15:36:39.998Z,49.40
2018-02-09T15:39:06.232Z,45.45
2018-02-09T15:41:32.540Z,51.80
2018-02-09T15:43:58.763Z,53.35
2018-02-09T15:46:25.045Z,47.25
2018-02-09T15:48:51.772Z,44.97
2018-02-09T15:51:18.123Z,47.22
2018-02-09T15:53:44.806Z,43.45
2018-02-09T15:56:11.242Z,39.55
2018-02-09T15:58:37.516Z,42.60
2018-02-09T16:01:04.133Z,48.25
2018-02-09T16:03:30.489Z,45.97
2018-02-09T16:05:57.275Z,45.95
2018-02-09T16:08:23.976Z,48.13
2018-02-09T16:10:50.563Z,44.75
2018-02-09T16:13:16.813Z,42.17
2018-02-09T16:15:43.118Z,46.40
2018-02-09T16:18:09.396Z,46.95
2018-02-09T16:20:36.060Z,50.33
2018-02-09T16:23:02.371Z,44.08
2018-02-09T16:25:28.601Z,45.92
2018-02-09T16:27:54.910Z,48.72
2018-02-09T16:30:21.539Z,45.75
2018-02-09T16:32:47.825Z,42.35
2018-02-09T16:35:28.225Z,45.05
2018-02-09T16:37:55.648Z,43.40
2018-02-09T16:40:21.937Z,42.20
2018-02-09T16:42:48.213Z,46.80
2018-02-09T16:45:14.579Z,47.03
2018-02-09T16:47:40.851Z,46.20
2018-02-09T16:50:07.274Z,50.50
2018-02-09T16:52:33.564Z,50.45
2018-02-09T16:55:00.240Z,46.00
2018-02-09T16:57:26.664Z,49.78
2018-02-09T16:59:53.467Z,49.78
2018-02-09T17:02:19.809Z,52.78
2018-02-09T17:04:46.097Z,51.70
2018-02-09T17:07:12.444Z,45.30
2018-02-09T17:09:38.878Z,47.15
2018-02-09T17:12:05.184Z,41.03
2018-02-09T17:14:31.503Z,47.03
2018-02-09T17:16:57.808Z,46.13
2018-02-09T17:19:24.483Z,48.42
2018-02-09T17:21:50.814Z,46.45
2018-02-09T17:24:17.063Z,48.30
2018-02-09T17:26:43.354Z,53.92
2018-02-09T17:29:09.714Z,46.15
2018-02-09T17:31:36.011Z,61.35
2018-02-09T17:34:02.325Z,51.47
2018-02-09T17:36:28.997Z,56.35
2018-02-09T17:38:55.308Z,104.28
2018-02-09T17:41:22.605Z,120.20
2018-02-09T17:43:48.944Z,56.22
2018-02-09T17:46:16.050Z,51.25
2018-02-09T17:48:42.330Z,48.42
2018-02-09T17:51:08.649Z,46.63
2018-02-09T17:53:34.994Z,49.45
2018-02-09T17:56:01.382Z,49.55
2018-02-09T17:58:27.694Z,52.30
2018-02-09T18:00:53.987Z,48.35
2018-02-09T18:03:20.307Z,50.30
2018-02-09T18:05:46.633Z,51.53
2018-02-09T18:08:12.956Z,48.75
2018-02-09T18:10:39.313Z,58.15
2018-02-09T18:13:05.938Z,61.65
2018-02-09T18:15:32.362Z,49.33
2018-02-09T18:17:58.686Z,48.22
2018-02-09T18:20:25.298Z,55.92
2018-02-09T18:22:51.810Z,49.88
2018-02-09T18:25:18.202Z,53.28
2018-02-09T18:27:44.654Z,51.33
2018-02-09T18:30:10.910Z,46.75
2018-02-09T18:32:37.258Z,55.22
2018-02-09T18:35:03.613Z,47.67
2018-02-09T18:37:29.967Z,53.53
2018-02-09T18:39:56.262Z,56.10
2018-02-09T18:42:22.675Z,51.60
2018-02-09T18:44:49.032Z,50.60
2018-02-09T18:47:15.394Z,48.85
2018-02-09T18:49:41.649Z,60.42
2018-02-09T18:52:08.313Z,63.60
2018-02-09T18:54:34.599Z,55.47
2018-02-09T18:57:00.922Z,54.13
2018-02-09T18:59:27.782Z,54.40
2018-02-09T19:01:54.530Z,49.35
2018-02-09T19:04:20.815Z,46.13
2018-02-09T19:06:47.246Z,47.10
2018-02-09T19:09:14.345Z,52.38
2018-02-09T19:11:40.713Z,57.92
2018-02-09T19:14:07.061Z,56.42
2018-02-09T19:16:33.380Z,51.92
2018-02-09T19:18:59.803Z,66.00
2018-02-09T19:21:26.167Z,55.67
2018-02-09T19:23:52.507Z,56.88
2018-02-09T19:26:18.839Z,61.67
2018-02-09T19:28:45.148Z,54.75
2018-02-09T19:31:11.421Z,52.35
2018-02-09T19:33:37.680Z,47.30
2018-02-09T19:36:03.988Z,52.38
2018-02-09T19:38:30.287Z,52.05
2018-02-09T19:40:56.976Z,47.45
2018-02-09T19:43:23.285Z,51.58
2018-02-09T19:45:49.550Z,50.25
2018-02-09T19:48:15.893Z,47.80
2018-02-09T19:50:42.267Z,50.00
2018-02-09T19:53:08.565Z,56.33
2018-02-09T19:55:34.950Z,50.40
2018-02-09T19:58:01.259Z,50.35
2018-02-09T20:00:27.590Z,61.83
2018-02-09T20:02:53.916Z,59.42
2018-02-09T20:05:20.733Z,55.67
2018-02-09T20:07:47.108Z,59.00
2018-02-09T20:10:13.450Z,57.03
2018-02-09T20:12:39.775Z,53.67
2018-02-09T20:15:06.163Z,58.42
2018-02-09T20:17:32.881Z,50.70
2018-02-09T20:19:59.213Z,50.55
2018-02-09T20:22:25.474Z,55.80
2018-02-09T20:24:52.248Z,58.15
2018-02-09T20:27:18.623Z,62.42
2018-02-09T20:29:45.023Z,61.75
2018-02-09T20:32:11.321Z,50.50
2018-02-09T20:34:37.744Z,61.03
2018-02-09T20:37:04.068Z,50.92
2018-02-09T20:39:30.752Z,60.00
2018-02-09T20:41:57.113Z,57.33
2018-02-09T20:44:23.552Z,58.50
2018-02-09T20:46:49.892Z,55.83
2018-02-09T20:49:16.192Z,48.75
2018-02-09T20:51:42.532Z,45.70
2018-02-09T20:54:08.902Z,50.30
2018-02-09T20:56:35.149Z,48.87
2018-02-09T20:59:01.527Z,53.80
2018-02-09T21:01:27.795Z,51.85
2018-02-09T21:03:54.195Z,51.78
2018-02-09T21:06:20.474Z,49.97
2018-02-09T21:08:46.781Z,56.28
2018-02-09T21:11:13.541Z,50.60
2018-02-09T21:13:40.847Z,58.13
2018-02-09T21:16:07.275Z,52.92
2018-02-09T21:18:33.658Z,57.40
2018-02-09T21:20:59.935Z,48.78
2018-02-09T21:23:26.263Z,51.80
2018-02-09T21:25:52.529Z,59.10
2018-02-09T21:28:18.845Z,60.53
2018-02-09T21:30:45.487Z,57.50
2018-02-09T21:33:12.181Z,62.90
2018-02-09T21:35:38.476Z,57.35
2018-02-09T21:38:04.748Z,54.55
2018-02-09T21:40:31.064Z,55.25
2018-02-09T21:42:57.462Z,66.28
2018-02-09T21:45:23.854Z,63.58
2018-02-09T21:47:50.104Z,57.55
2018-02-09T21:50:16.808Z,66.25
2018-02-09T21:52:43.103Z,64.68
2018-02-09T21:55:09.404Z,60.95
2018-02-09T21:57:36.056Z,63.67
2018-02-09T22:00:02.488Z,66.82
2018-02-09T22:02:28.903Z,68.07
2018-02-09T22:04:55.608Z,65.22
2018-02-09T22:07:22.069Z,58.03
2018-02-09T22:09:48.388Z,57.05
2018-02-09T22:12:14.713Z,55.45
2018-02-09T22:14:41.070Z,52.47
2018-02-09T22:17:07.710Z,46.28
2018-02-09T22:19:34.432Z,48.03
2018-02-09T22:22:00.766Z,50.90
2018-02-09T22:24:27.076Z,48.20
2018-02-09T22:26:53.424Z,53.47
2018-02-09T22:29:19.745Z,51.10
2018-02-09T22:31:46.054Z,52.60
2018-02-09T22:34:12.350Z,53.63
2018-02-09T22:36:38.637Z,57.35
2018-02-09T22:39:04.983Z,55.12
2018-02-09T22:41:31.675Z,49.67
2018-02-09T22:43:57.944Z,51.63
2018-02-09T22:46:24.254Z,49.45
2018-02-09T22:48:50.702Z,52.67
2018-02-09T22:51:16.968Z,54.53
2018-02-09T22:53:43.282Z,56.37
2018-02-09T22:56:10.047Z,54.47
2018-02-09T22:58:36.365Z,55.97
2018-02-09T23:01:02.753Z,55.30
2018-02-09T23:03:29.415Z,58.15
2018-02-09T23:05:55.791Z,54.08
2018-02-09T23:08:22.118Z,54.30
2018-02-09T23:10:48.470Z,54.03
2018-02-09T23:13:14.717Z,58.30
2018-02-09T23:15:41.009Z,53.08
2018-02-09T23:18:07.250Z,53.80
2018-02-09T23:20:33.603Z,60.42
2018-02-09T23:22:59.829Z,57.83
2018-02-09T23:25:26.067Z,58.25
2018-02-09T23:27:52.437Z,50.65
2018-02-09T23:30:18.743Z,50.05
2018-02-09T23:32:45.372Z,56.28
2018-02-09T23:35:11.698Z,51.70
2018-02-09T23:37:37.923Z,50.78
2018-02-09T23:40:04.161Z,53.22
2018-02-09T23:42:30.453Z,59.63
2018-02-09T23:44:56.680Z,48.20
2018-02-09T23:47:23.389Z,54.22
2018-02-09T23:49:49.662Z,48.22
2018-02-09T23:52:15.992Z,52.20
2018-02-09T23:54:42.329Z,53.42
2018-02-09T23:57:08.560Z,53.90
2018-02-09T23:59:34.833Z,49.10
